Friday, October 19, 2018, 4:54 AM GMT
Back to Local

CWQH, Lennoxville

Location: , , Canada Lat: 45.367
Local Time: 4:54 AM GMT ( 4:54 GMT) Lon: -71.817
Time Zone: GMT Elev: 593 ft

Show me the last for .
Show Coded

Time T Td Feel RH Dir Speed Gust Alt SLP Vis Weather Sky Remarks
2018-10-19 04:00 31 22 27 66 210° 5 - - - 0 None
2018-10-19 03:00 34 18 29 51 250° 6 - - - 0 None
2018-10-19 02:00 34 17 28 50 260° 7 - - - 0 None
2018-10-19 01:00 33 18 28 53 250° 6 - - - 0 None
2018-10-19 00:00 32 19 26 60 240° 6 - - - 0 None
2018-10-18 23:00 34 19 27 54 250° 8 - - - 0 Peak wind: 26 mph (23 kts) from 260° at 03 min
2018-10-18 22:00 35 20 27 52 280° 10 - - - 0 Peak wind: 23 mph (20 kts) from 300° at 03 min
2018-10-18 21:00 36 19 23 48 290° 16 26 - - 0 Peak wind: 27 mph (24 kts) from 300° at 41 min
2018-10-18 20:00 36 18 25 47 280° 15 23 - - 0 Peak wind: 27 mph (24 kts) from 290° at 01 min
2018-10-18 19:00 38 17 25 41 280° 17 36 - - 0 Peak wind: 35 mph (31 kts) from 260° at 51 min
2018-10-18 18:00 37 17 25 44 280° 17 25 - - 0 Peak wind: 28 mph (25 kts) from 310° at 23 min
2018-10-18 17:00 35 19 24 52 290° 15 21 - - 0 Peak wind: 25 mph (22 kts) from 310° at 12 min
2018-10-18 16:00 33 21 21 59 290° 15 22 - - 0 Peak wind: 25 mph (22 kts) from 270° at 39 min
2018-10-18 15:00 32 22 19 66 290° 14 22 - - 0 Peak wind: 26 mph (23 kts) from 300° at 03 min
2018-10-18 14:00 33 20 20 58 290° 18 26 - - 0 Peak wind: 28 mph (25 kts) from 300° at 46 min
2018-10-18 13:00 31 22 18 67 290° 16 22 - - 0 Peak wind: 27 mph (24 kts) from 300° at 08 min
2018-10-18 12:00 31 23 18 72 280° 16 23 - - 0 Peak wind: 26 mph (23 kts) from 280° at 38 min
2018-10-18 11:00 30 23 18 72 290° 12 21 - - 0 Peak wind: 21 mph (19 kts) from 300° at 42 min
2018-10-18 10:00 31 24 18 73 280° 12 23 - - 0 Peak wind: 24 mph (21 kts) from 290° at 21 min
2018-10-18 09:00 32 25 20 76 290° 13 20 - - 0 Peak wind: 29 mph (26 kts) from 290° at 20 min
2018-10-18 08:00 31 26 23 80 290° 10 - - - 0 Peak wind: 20 mph (18 kts) from 280° at 13 min
2018-10-18 07:00 33 27 25 76 300° 12 - - - 0 Peak wind: 19 mph (17 kts) from 300° at 24 min
2018-10-18 06:00 34 27 22 77 290° 12 20 - - 0 Peak wind: 19 mph (17 kts) from 250° at 58 min
2018-10-18 05:00 34 29 27 81 290° 9 - - - 0 Peak wind: 19 mph (17 kts) from 300° at 13 min

Support USWX by starting your Amazon purchase here.